Ofertas de vuelos a Natal

Encontranos en
En el mes de
SalidaRegresoDíasConexionesDisp.
Jue 11/06/20202020-06-11Jue 18/06/20202020-06-187ConexionesVer disponibilidad>06https://an.despegar.com/ad/1040?q=shop%2Fflights%2Fresults%2Froundtrip%2FBUE%2FNAT%2F2020-06-11%2F2020-06-18%2F1%2F0%2F0
Mar 16/06/20202020-06-16Mar 23/06/20202020-06-237ConexionesVer disponibilidad>06https://an.despegar.com/ad/1040?q=shop%2Fflights%2Fresults%2Froundtrip%2FBUE%2FNAT%2F2020-06-16%2F2020-06-23%2F1%2F0%2F0
Vie 26/06/20202020-06-26Vie 03/07/20202020-07-037ConexionesVer disponibilidad>06https://an.despegar.com/ad/1040?q=shop%2Fflights%2Fresults%2Froundtrip%2FBUE%2FNAT%2F2020-06-26%2F2020-07-03%2F1%2F0%2F0
Mie 08/07/20202020-07-08Dom 19/07/20202020-07-1911ConexionesVer disponibilidad>07https://an.despegar.com/ad/1040?q=shop%2Fflights%2Fresults%2Froundtrip%2FBUE%2FNAT%2F2020-07-08%2F2020-07-19%2F1%2F0%2F0
Sab 11/07/20202020-07-11Sab 18/07/20202020-07-187ConexionesVer disponibilidad>07https://an.despegar.com/ad/1040?q=shop%2Fflights%2Fresults%2Froundtrip%2FBUE%2FNAT%2F2020-07-11%2F2020-07-18%2F1%2F0%2F0
Mar 04/08/20202020-08-04Mie 12/08/20202020-08-128ConexionesVer disponibilidad>08https://an.despegar.com/ad/1040?q=shop%2Fflights%2Fresults%2Froundtrip%2FBUE%2FNAT%2F2020-08-04%2F2020-08-12%2F1%2F0%2F0
Vie 21/08/20202020-08-21Dom 30/08/20202020-08-309ConexionesVer disponibilidad>08https://an.despegar.com/ad/1040?q=shop%2Fflights%2Fresults%2Froundtrip%2FBUE%2FNAT%2F2020-08-21%2F2020-08-30%2F1%2F0%2F0
Sab 29/08/20202020-08-29Dom 06/09/20202020-09-068ConexionesVer disponibilidad>08https://an.despegar.com/ad/1040?q=shop%2Fflights%2Fresults%2Froundtrip%2FBUE%2FNAT%2F2020-08-29%2F2020-09-06%2F1%2F0%2F0
Vie 11/09/20202020-09-11Dom 20/09/20202020-09-209ConexionesVer disponibilidad>09https://an.despegar.com/ad/1040?q=shop%2Fflights%2Fresults%2Froundtrip%2FBUE%2FNAT%2F2020-09-11%2F2020-09-20%2F1%2F0%2F0
Sab 19/09/20202020-09-19Vie 02/10/20202020-10-0213ConexionesVer disponibilidad>09https://an.despegar.com/ad/1040?q=shop%2Fflights%2Fresults%2Froundtrip%2FBUE%2FNAT%2F2020-09-19%2F2020-10-02%2F1%2F0%2F0
Dom 27/09/20202020-09-27Jue 08/10/20202020-10-0811ConexionesVer disponibilidad>09https://an.despegar.com/ad/1040?q=shop%2Fflights%2Fresults%2Froundtrip%2FBUE%2FNAT%2F2020-09-27%2F2020-10-08%2F1%2F0%2F0
Sab 03/10/20202020-10-03Sab 10/10/20202020-10-107ConexionesVer disponibilidad>10https://an.despegar.com/ad/1040?q=shop%2Fflights%2Fresults%2Froundtrip%2FBUE%2FNAT%2F2020-10-03%2F2020-10-10%2F1%2F0%2F0
Sab 03/10/20202020-10-03Dom 11/10/20202020-10-118ConexionesVer disponibilidad>10https://an.despegar.com/ad/1040?q=shop%2Fflights%2Fresults%2Froundtrip%2FBUE%2FNAT%2F2020-10-03%2F2020-10-11%2F1%2F0%2F0
Jue 15/10/20202020-10-15Dom 25/10/20202020-10-2510ConexionesVer disponibilidad>10https://an.despegar.com/ad/1040?q=shop%2Fflights%2Fresults%2Froundtrip%2FBUE%2FNAT%2F2020-10-15%2F2020-10-25%2F1%2F0%2F0
Sab 17/10/20202020-10-17Dom 25/10/20202020-10-258ConexionesVer disponibilidad>10https://an.despegar.com/ad/1040?q=shop%2Fflights%2Fresults%2Froundtrip%2FBUE%2FNAT%2F2020-10-17%2F2020-10-25%2F1%2F0%2F0
Sab 17/10/20202020-10-17Sab 24/10/20202020-10-247ConexionesVer disponibilidad>10https://an.despegar.com/ad/1040?q=shop%2Fflights%2Fresults%2Froundtrip%2FBUE%2FNAT%2F2020-10-17%2F2020-10-24%2F1%2F0%2F0
Sab 17/10/20202020-10-17Mie 28/10/20202020-10-2811ConexionesVer disponibilidad>10https://an.despegar.com/ad/1040?q=shop%2Fflights%2Fresults%2Froundtrip%2FBUE%2FNAT%2F2020-10-17%2F2020-10-28%2F1%2F0%2F0
Mar 17/11/20202020-11-17Mar 24/11/20202020-11-247ConexionesVer disponibilidad>11https://an.despegar.com/ad/1040?q=shop%2Fflights%2Fresults%2Froundtrip%2FBUE%2FNAT%2F2020-11-17%2F2020-11-24%2F1%2F0%2F0
Sab 21/11/20202020-11-21Mar 08/12/20202020-12-0817ConexionesVer disponibilidad>11https://an.despegar.com/ad/1040?q=shop%2Fflights%2Fresults%2Froundtrip%2FBUE%2FNAT%2F2020-11-21%2F2020-12-08%2F1%2F0%2F0
Mie 02/12/20202020-12-02Dom 13/12/20202020-12-1311ConexionesVer disponibilidad>12https://an.despegar.com/ad/1040?q=shop%2Fflights%2Fresults%2Froundtrip%2FBUE%2FNAT%2F2020-12-02%2F2020-12-13%2F1%2F0%2F0
Sab 12/12/20202020-12-12Dom 20/12/20202020-12-208ConexionesVer disponibilidad>12https://an.despegar.com/ad/1040?q=shop%2Fflights%2Fresults%2Froundtrip%2FBUE%2FNAT%2F2020-12-12%2F2020-12-20%2F1%2F0%2F0
Sab 16/01/20212021-01-16Dom 24/01/20212021-01-248ConexionesVer disponibilidad>01https://an.despegar.com/ad/1040?q=shop%2Fflights%2Fresults%2Froundtrip%2FBUE%2FNAT%2F2021-01-16%2F2021-01-24%2F1%2F0%2F0
Sab 30/01/20212021-01-30Mie 10/02/20212021-02-1011ConexionesVer disponibilidad>01https://an.despegar.com/ad/1040?q=shop%2Fflights%2Fresults%2Froundtrip%2FBUE%2FNAT%2F2021-01-30%2F2021-02-10%2F1%2F0%2F0
Lun 01/02/20212021-02-01Mie 10/02/20212021-02-109ConexionesVer disponibilidad>02https://an.despegar.com/ad/1040?q=shop%2Fflights%2Fresults%2Froundtrip%2FBUE%2FNAT%2F2021-02-01%2F2021-02-10%2F1%2F0%2F0
Mar 09/02/20212021-02-09Mie 24/02/20212021-02-2415ConexionesVer disponibilidad>02https://an.despegar.com/ad/1040?q=shop%2Fflights%2Fresults%2Froundtrip%2FBUE%2FNAT%2F2021-02-09%2F2021-02-24%2F1%2F0%2F0

Es posible que la disponibilidad de vuelos hacia este destino se vea afectada debido al COVID-19. Si es tu caso, te invitamos a realizar una nueva búsqueda a través de este link.

Información general sobre Natal

Natal, que en español significa Navidad, es una ciudad brasileña localizada en el estado de Rio Grande do Norte. Atravesada por el río Potengi, la capital nordestina cuenta con playas, dunas y diferentes atracciones históricas. Anualmente recibe a dos millones de turistas y es la puerta de entrada hacia otros importantes destinos del estado.

Pasajes Aéreos y Vuelos Baratos a Natal

Descargá gratis nuestra nueva app para Android y iOS.
Suscribite a las notificaciones de Chrome y Safari.
Seguinos en Facebook, Twitter e Instagram
Suscribite a nuestro newsletter aquí.